Time;durP1;ratioP1;P1;durP2;ratioP2;P2;SDS_P1;SDS_P2;PMS_P1;PMS_P2;Temp;Humidity;BMP_temperature;BMP_pressure;BME280_temperature;BME280_humidity;BME280_pressure;Samples;Min_cycle;Max_cycle;Signal;HPM_P1;HPM_P2
2022/11/26 00:01:14;;;;;;;5.10;2.37;;;7.10;97.80;;;;;;5000529;28;20288;-82
2022/11/26 00:03:40;;;;;;;4.88;2.45;;;7.10;97.70;;;;;;5026540;28;20497;-82
2022/11/26 00:06:35;;;;;;;5.57;2.13;;;7.10;98.00;;;;;;5012096;28;20025;-82
2022/11/26 00:09:02;;;;;;;3.90;1.90;;;7.10;98.00;;;;;;5022105;28;20686;-82
2022/11/26 00:11:28;;;;;;;4.32;1.90;;;7.10;98.00;;;;;;5039796;28;20025;-83
2022/11/26 00:13:54;;;;;;;3.92;1.95;;;7.10;98.00;;;;;;5028311;28;20459;-82
2022/11/26 00:16:19;;;;;;;4.63;2.00;;;7.10;98.00;;;;;;5005341;28;21784;-82
2022/11/26 00:18:45;;;;;;;3.22;2.17;;;7.10;98.00;;;;;;5021376;28;20128;-82
2022/11/26 00:21:22;;;;;;;3.30;2.00;;;7.00;98.00;;;;;;5012839;28;20053;-82
2022/11/26 00:23:48;;;;;;;3.38;1.90;;;7.00;98.00;;;;;;5013461;28;20049;-82
2022/11/26 00:26:18;;;;;;;3.40;2.00;;;7.00;98.00;;;;;;5052184;28;20029;-82
2022/11/26 00:28:53;;;;;;;4.25;2.00;;;7.00;98.00;;;;;;5026340;28;20241;-82
2022/11/26 00:31:18;;;;;;;4.20;2.10;;;7.00;98.00;;;;;;5032456;28;20102;-82
2022/11/26 00:33:44;;;;;;;4.63;1.70;;;7.00;98.10;;;;;;5027395;28;20032;-82
2022/11/26 00:36:24;;;;;;;3.97;1.87;;;7.00;98.00;;;;;;5043300;28;20494;-82
2022/11/26 00:38:56;;;;;;;4.30;2.10;;;7.00;98.10;;;;;;5028746;28;20041;-82
2022/11/26 00:41:24;;;;;;;5.00;2.10;;;6.90;98.00;;;;;;5040971;28;20465;-82
2022/11/26 00:43:49;;;;;;;3.30;1.70;;;6.90;98.00;;;;;;5061199;28;20017;-82
2022/11/26 00:46:20;;;;;;;3.80;2.00;;;6.90;98.00;;;;;;5001341;28;20040;-82
2022/11/26 00:48:46;;;;;;;4.82;2.28;;;6.90;98.00;;;;;;5031260;28;20641;-82
2022/11/26 00:51:26;;;;;;;4.45;1.90;;;6.80;97.90;;;;;;5047261;28;20029;-82
2022/11/26 00:53:54;;;;;;;4.00;1.85;;;6.80;97.90;;;;;;5028847;28;20112;-82
2022/11/26 00:56:21;;;;;;;5.57;2.50;;;6.80;97.90;;;;;;5014971;28;20044;-82
2022/11/26 00:58:49;;;;;;;4.97;2.10;;;6.80;97.90;;;;;;5058701;28;20676;-82
2022/11/26 01:01:24;;;;;;;3.58;1.80;;;6.70;97.80;;;;;;5010115;28;20128;-82
2022/11/26 01:03:51;;;;;;;3.97;1.75;;;6.70;97.80;;;;;;5011270;28;20202;-82
2022/11/26 01:06:23;;;;;;;4.07;2.05;;;6.70;97.80;;;;;;5025091;28;20029;-82
2022/11/26 01:08:49;;;;;;;3.65;2.10;;;6.70;97.80;;;;;;5020860;28;20546;-82
2022/11/26 01:11:20;;;;;;;6.30;1.97;;;6.70;97.80;;;;;;4987779;28;20029;-82
2022/11/26 01:13:47;;;;;;;3.53;1.80;;;6.60;97.70;;;;;;5021372;28;20031;-82
2022/11/26 01:16:21;;;;;;;4.47;1.70;;;6.60;97.70;;;;;;5003708;28;20076;-82
2022/11/26 01:18:49;;;;;;;4.28;1.98;;;6.60;97.70;;;;;;5022092;28;20028;-82
2022/11/26 01:21:15;;;;;;;4.83;2.00;;;6.50;97.80;;;;;;5024235;28;20029;-82
2022/11/26 01:23:41;;;;;;;3.88;1.90;;;6.50;97.90;;;;;;5050182;28;20493;-82
2022/11/26 01:26:17;;;;;;;5.30;1.88;;;6.50;98.00;;;;;;5017930;28;20040;-82
2022/11/26 01:28:43;;;;;;;4.47;2.30;;;6.50;98.10;;;;;;5019035;28;20538;-82
2022/11/26 01:31:21;;;;;;;4.43;2.10;;;6.50;98.10;;;;;;5038110;28;20548;-82
2022/11/26 01:33:47;;;;;;;4.78;2.35;;;6.40;98.10;;;;;;5029147;28;20028;-82
2022/11/26 01:36:29;;;;;;;4.18;2.10;;;6.40;98.10;;;;;;5019212;28;20040;-82
2022/11/26 01:39:04;;;;;;;5.00;2.77;;;6.40;98.20;;;;;;5023517;28;20136;-82
2022/11/26 01:41:29;;;;;;;3.95;2.10;;;6.40;98.10;;;;;;4994526;28;20805;-81
2022/11/26 01:43:57;;;;;;;5.43;2.20;;;6.40;98.10;;;;;;5019389;28;20048;-82
2022/11/26 01:46:25;;;;;;;4.20;2.10;;;6.30;98.20;;;;;;5048509;28;20257;-82
2022/11/26 01:48:51;;;;;;;3.60;1.95;;;6.30;98.20;;;;;;5027087;28;20648;-82
2022/11/26 01:51:23;;;;;;;3.38;1.90;;;6.30;98.30;;;;;;5006443;28;20033;-82
2022/11/26 01:53:59;;;;;;;3.45;1.80;;;6.30;98.40;;;;;;5035149;28;20053;-82
2022/11/26 01:56:37;;;;;;;5.43;2.00;;;6.30;98.60;;;;;;5020555;28;20037;-82
2022/11/26 01:59:15;;;;;;;8.27;2.00;;;6.30;98.60;;;;;;5005556;28;20085;-82
2022/11/26 02:01:41;;;;;;;4.10;1.88;;;6.30;98.70;;;;;;5036854;28;20103;-84
2022/11/26 02:04:20;;;;;;;4.30;2.00;;;6.30;98.60;;;;;;5001600;28;20446;-84
2022/11/26 02:06:48;;;;;;;4.53;2.13;;;6.30;98.60;;;;;;5032840;28;20053;-84
2022/11/26 02:09:15;;;;;;;4.43;1.50;;;6.30;98.60;;;;;;5006487;28;20576;-84
2022/11/26 02:11:41;;;;;;;3.50;1.52;;;6.30;98.60;;;;;;5010004;28;20033;-84
2022/11/26 02:14:23;;;;;;;3.88;1.70;;;6.30;98.60;;;;;;4986835;28;20323;-84
2022/11/26 02:17:12;;;;;;;4.05;1.85;;;6.20;98.50;;;;;;5037110;28;20029;-84
2022/11/26 02:19:55;;;;;;;3.47;1.73;;;6.20;98.60;;;;;;5006528;28;20129;-84
2022/11/26 02:22:42;;;;;;;3.70;1.60;;;6.20;98.50;;;;;;5016391;28;20111;-84
2022/11/26 02:25:23;;;;;;;3.55;1.50;;;6.20;98.50;;;;;;5015723;28;20033;-84
2022/11/26 02:28:14;;;;;;;3.35;1.77;;;6.20;98.50;;;;;;5024007;28;20037;-84
2022/11/26 02:30:55;;;;;;;2.67;1.60;;;6.20;98.60;;;;;;5000253;28;20051;-84
2022/11/26 02:33:28;;;;;;;3.83;1.63;;;6.10;98.60;;;;;;5029112;28;20108;-84
2022/11/26 02:36:26;;;;;;;3.10;1.40;;;6.10;98.60;;;;;;5004374;28;20056;-84
2022/11/26 02:38:51;;;;;;;3.45;1.70;;;6.10;98.70;;;;;;5036457;28;20100;-84
2022/11/26 02:41:17;;;;;;;2.83;1.83;;;6.10;98.70;;;;;;5037122;28;20116;-84
2022/11/26 02:43:43;;;;;;;3.33;1.60;;;6.00;98.70;;;;;;5029454;28;20106;-84
2022/11/26 02:46:13;;;;;;;3.85;1.58;;;6.00;98.80;;;;;;5004167;28;20489;-84
2022/11/26 02:48:43;;;;;;;2.93;1.40;;;6.00;98.80;;;;;;5023552;28;20024;-84
2022/11/26 02:51:22;;;;;;;2.90;1.50;;;6.00;98.90;;;;;;5009230;28;20025;-84
2022/11/26 02:53:50;;;;;;;2.15;1.50;;;6.00;98.90;;;;;;5043757;28;20040;-84
2022/11/26 02:56:21;;;;;;;2.80;1.45;;;6.00;98.90;;;;;;5047708;28;20353;-84
2022/11/26 02:58:49;;;;;;;2.85;1.42;;;5.90;98.90;;;;;;5007660;28;20021;-84
2022/11/26 03:01:28;;;;;;;3.13;1.40;;;6.00;99.00;;;;;;5025675;28;20051;-84
2022/11/26 03:03:57;;;;;;;2.25;1.23;;;5.90;99.00;;;;;;5022822;28;20074;-84
2022/11/26 03:06:28;;;;;;;3.25;1.50;;;5.90;99.10;;;;;;4995090;28;20135;-84
2022/11/26 03:08:55;;;;;;;3.47;1.60;;;6.00;99.20;;;;;;5028665;28;20505;-84
2022/11/26 03:11:21;;;;;;;3.85;1.58;;;5.90;99.30;;;;;;5039341;28;20469;-83
2022/11/26 03:13:48;;;;;;;3.63;1.50;;;5.90;99.30;;;;;;5012926;28;20118;-83
2022/11/26 03:16:14;;;;;;;3.00;1.50;;;5.90;99.40;;;;;;5016436;28;20567;-83
2022/11/26 03:18:39;;;;;;;2.60;1.40;;;5.90;99.50;;;;;;5054826;28;20024;-84
2022/11/26 03:21:05;;;;;;;4.63;1.60;;;6.00;99.60;;;;;;5007797;28;20690;-83
2022/11/26 03:23:31;;;;;;;4.00;1.40;;;6.00;99.60;;;;;;5047533;28;20071;-84
2022/11/26 03:25:57;;;;;;;3.90;1.40;;;6.00;99.70;;;;;;5025974;28;20306;-84
2022/11/26 03:28:23;;;;;;;3.50;1.53;;;6.00;99.90;;;;;;5006979;28;20505;-84
2022/11/26 03:30:50;;;;;;;2.63;1.40;;;6.00;99.70;;;;;;4992838;28;20029;-83
2022/11/26 03:33:16;;;;;;;3.17;1.35;;;6.00;99.70;;;;;;5040350;28;20266;-83
2022/11/26 03:35:41;;;;;;;3.07;1.40;;;6.00;99.70;;;;;;5017741;28;20056;-83
2022/11/26 03:38:07;;;;;;;2.80;1.30;;;6.00;99.60;;;;;;5001455;28;20796;-83
2022/11/26 03:40:33;;;;;;;4.87;1.40;;;6.00;99.60;;;;;;5004379;28;20022;-83
2022/11/26 03:42:58;;;;;;;3.28;1.40;;;6.00;99.50;;;;;;5013868;28;20028;-83
2022/11/26 03:45:24;;;;;;;4.83;1.50;;;6.00;99.50;;;;;;5029165;28;20033;-83
2022/11/26 03:47:50;;;;;;;3.72;1.60;;;5.90;99.50;;;;;;4993894;28;20032;-83
2022/11/26 03:50:15;;;;;;;2.97;1.40;;;6.00;99.50;;;;;;5017473;28;20052;-83
2022/11/26 03:52:41;;;;;;;2.55;1.42;;;5.90;99.50;;;;;;4998230;28;20025;-84
2022/11/26 03:55:08;;;;;;;2.67;1.47;;;5.90;99.50;;;;;;5048902;28;20148;-83
2022/11/26 03:57:33;;;;;;;2.78;1.58;;;5.90;99.40;;;;;;5015902;28;20494;-83
2022/11/26 03:59:59;;;;;;;3.25;1.35;;;5.90;99.40;;;;;;5009253;28;20024;-83
2022/11/26 04:02:25;;;;;;;4.33;1.40;;;5.90;99.40;;;;;;5024784;28;20025;-83
2022/11/26 04:04:50;;;;;;;2.95;1.30;;;5.90;99.40;;;;;;5001118;28;20529;-83
2022/11/26 04:07:16;;;;;;;2.00;1.20;;;5.80;99.30;;;;;;5025663;28;20029;-83
2022/11/26 04:09:41;;;;;;;2.40;1.10;;;5.80;99.30;;;;;;5018886;28;20106;-83
2022/11/26 04:12:07;;;;;;;2.25;1.17;;;5.80;99.30;;;;;;5028888;28;20029;-83
2022/11/26 04:14:33;;;;;;;2.67;1.23;;;5.80;99.30;;;;;;5008427;28;20031;-83
2022/11/26 04:16:58;;;;;;;2.55;1.40;;;5.80;99.30;;;;;;5057255;28;20226;-83
2022/11/26 04:19:24;;;;;;;2.47;1.20;;;5.70;99.30;;;;;;4998597;28;20025;-83
2022/11/26 04:21:50;;;;;;;4.45;1.42;;;5.70;99.30;;;;;;5025445;28;20385;-83
2022/11/26 04:24:16;;;;;;;2.73;1.13;;;5.70;99.30;;;;;;5010777;28;20032;-83
2022/11/26 04:26:41;;;;;;;1.95;1.20;;;5.70;99.30;;;;;;5002759;28;20036;-83
2022/11/26 04:29:07;;;;;;;2.80;1.43;;;5.70;99.30;;;;;;5055692;28;20321;-83
2022/11/26 04:31:32;;;;;;;3.33;1.20;;;5.70;99.40;;;;;;5030111;28;20128;-83
2022/11/26 04:33:58;;;;;;;1.70;1.10;;;5.70;99.40;;;;;;5013104;28;20033;-83
2022/11/26 04:36:24;;;;;;;2.47;1.20;;;5.60;99.40;;;;;;5024354;28;20017;-83
2022/11/26 04:38:49;;;;;;;2.28;1.20;;;5.60;99.40;;;;;;5003790;28;20064;-83
2022/11/26 04:41:15;;;;;;;1.70;1.10;;;5.60;99.40;;;;;;5060474;28;20078;-83
2022/11/26 04:43:40;;;;;;;2.35;1.15;;;5.60;99.40;;;;;;5005069;28;20095;-83
2022/11/26 04:46:06;;;;;;;2.57;1.20;;;5.60;99.50;;;;;;5042802;28;20017;-83
2022/11/26 04:48:32;;;;;;;3.90;1.20;;;5.60;99.50;;;;;;5008550;28;20080;-83
2022/11/26 04:50:57;;;;;;;3.17;1.10;;;5.60;99.50;;;;;;5014442;28;20087;-83
2022/11/26 04:53:23;;;;;;;1.80;1.00;;;5.60;99.60;;;;;;5028346;28;20047;-83
2022/11/26 04:55:50;;;;;;;2.13;1.10;;;5.60;99.70;;;;;;5004419;28;20261;-83
2022/11/26 04:58:17;;;;;;;1.90;1.10;;;5.60;99.80;;;;;;5033087;28;20069;-83
2022/11/26 05:00:43;;;;;;;3.13;1.50;;;5.60;99.80;;;;;;5034392;28;20013;-83
2022/11/26 05:03:08;;;;;;;2.33;1.10;;;5.60;99.90;;;;;;5012017;28;20024;-83
2022/11/26 05:05:34;;;;;;;2.40;1.20;;;5.60;99.80;;;;;;5005833;28;20303;-83
2022/11/26 05:08:00;;;;;;;2.28;1.20;;;5.60;99.80;;;;;;5019131;28;20365;-83
2022/11/26 05:10:26;;;;;;;2.53;1.40;;;5.60;99.70;;;;;;5003011;28;20625;-83
2022/11/26 05:12:51;;;;;;;2.30;1.30;;;5.60;99.70;;;;;;5016857;28;20453;-83
2022/11/26 05:15:17;;;;;;;4.03;1.30;;;5.60;99.60;;;;;;5000107;28;20040;-83
2022/11/26 05:17:42;;;;;;;2.83;1.20;;;5.60;99.60;;;;;;5018365;28;20053;-83
2022/11/26 05:20:09;;;;;;;1.70;1.03;;;5.60;99.60;;;;;;5016418;28;20021;-83
2022/11/26 05:22:34;;;;;;;2.38;1.20;;;5.60;99.60;;;;;;5006530;28;20451;-83
2022/11/26 05:25:00;;;;;;;3.35;1.27;;;5.60;99.60;;;;;;4984795;28;20120;-83
2022/11/26 05:27:26;;;;;;;2.37;1.10;;;5.50;99.50;;;;;;5017485;28;20029;-83
2022/11/26 05:29:51;;;;;;;2.28;1.20;;;5.60;99.60;;;;;;5008881;28;20021;-83
2022/11/26 05:32:17;;;;;;;2.50;1.20;;;5.50;99.60;;;;;;5035703;28;20770;-83
2022/11/26 05:34:42;;;;;;;2.63;1.10;;;5.50;99.60;;;;;;5051064;28;20112;-83
2022/11/26 05:37:08;;;;;;;2.92;1.27;;;5.50;99.60;;;;;;5004896;28;20040;-83
2022/11/26 05:39:34;;;;;;;3.13;1.10;;;5.50;99.60;;;;;;5011248;28;20647;-83
2022/11/26 05:41:59;;;;;;;2.67;1.48;;;5.50;99.70;;;;;;5016738;28;20518;-83
2022/11/26 05:44:25;;;;;;;2.03;1.10;;;5.50;99.70;;;;;;5006115;28;20025;-83
2022/11/26 05:46:50;;;;;;;2.63;1.30;;;5.50;99.70;;;;;;5008978;28;20087;-83
2022/11/26 05:49:16;;;;;;;2.35;1.10;;;5.50;99.70;;;;;;5020002;28;20040;-83
2022/11/26 05:51:42;;;;;;;3.20;1.47;;;5.50;99.70;;;;;;5036018;28;20026;-83
2022/11/26 05:54:12;;;;;;;4.00;1.30;;;5.50;99.70;;;;;;5031350;28;20480;-83
2022/11/26 05:56:37;;;;;;;5.40;1.33;;;5.50;99.70;;;;;;5003460;28;20025;-83
2022/11/26 05:59:03;;;;;;;2.08;1.20;;;5.50;99.70;;;;;;5018839;28;20033;-83
2022/11/26 06:01:28;;;;;;;2.80;1.20;;;5.40;99.70;;;;;;5008397;28;20461;-83
2022/11/26 06:03:54;;;;;;;3.75;1.70;;;5.40;99.70;;;;;;5017168;28;21116;-84
2022/11/26 06:06:20;;;;;;;2.03;1.20;;;5.40;99.70;;;;;;5033874;28;20100;-83
2022/11/26 06:08:45;;;;;;;2.78;1.20;;;5.40;99.80;;;;;;4990564;28;20562;-83
2022/11/26 06:11:14;;;;;;;3.50;1.30;;;5.40;99.80;;;;;;5017552;28;20026;-83
2022/11/26 06:13:40;;;;;;;4.50;1.70;;;5.40;99.80;;;;;;5008278;28;20234;-83
2022/11/26 06:16:06;;;;;;;2.10;1.30;;;5.40;99.70;;;;;;5020991;28;20025;-83
2022/11/26 06:18:32;;;;;;;3.63;1.30;;;5.40;99.70;;;;;;5036534;28;20055;-83
2022/11/26 06:21:01;;;;;;;3.23;1.30;;;5.40;99.60;;;;;;5020035;28;20035;-83
2022/11/26 06:23:27;;;;;;;2.65;1.20;;;5.40;99.60;;;;;;5019025;28;20040;-83
2022/11/26 06:25:53;;;;;;;3.90;1.40;;;5.40;99.70;;;;;;5019782;28;20033;-83
2022/11/26 06:28:18;;;;;;;2.00;1.00;;;5.30;99.70;;;;;;5003023;28;20071;-83
2022/11/26 06:30:44;;;;;;;2.47;1.10;;;5.30;99.70;;;;;;5018924;28;20521;-83
2022/11/26 06:33:10;;;;;;;2.50;1.23;;;5.30;99.60;;;;;;5018728;28;20087;-83
2022/11/26 06:35:36;;;;;;;2.80;1.30;;;5.30;99.60;;;;;;5030509;28;20030;-83
2022/11/26 06:38:01;;;;;;;3.20;1.30;;;5.30;99.50;;;;;;5003183;28;20028;-83
2022/11/26 06:40:27;;;;;;;2.60;1.35;;;5.30;99.50;;;;;;5034497;28;20223;-83
2022/11/26 06:42:53;;;;;;;2.93;1.10;;;5.30;99.60;;;;;;4998387;28;20506;-83
2022/11/26 06:45:20;;;;;;;2.05;1.15;;;5.20;99.50;;;;;;5036740;28;20035;-83
2022/11/26 06:47:47;;;;;;;2.47;1.10;;;5.20;99.50;;;;;;5049070;28;20329;-83
2022/11/26 06:50:14;;;;;;;3.00;1.20;;;5.20;99.50;;;;;;5024500;28;20030;-83
2022/11/26 06:52:40;;;;;;;1.55;1.10;;;5.20;99.40;;;;;;5003127;28;20160;-83
2022/11/26 06:55:06;;;;;;;3.13;1.33;;;5.10;99.40;;;;;;5029859;28;20052;-83
2022/11/26 06:57:32;;;;;;;2.25;1.30;;;5.10;99.50;;;;;;5023587;28;20582;-83
2022/11/26 06:59:57;;;;;;;2.30;1.30;;;5.10;99.80;;;;;;4997844;28;20226;-84
2022/11/26 07:02:23;;;;;;;2.47;1.10;;;5.10;99.60;;;;;;5017053;28;20605;-84
2022/11/26 07:04:48;;;;;;;2.15;1.20;;;5.10;99.60;;;;;;5010544;28;20033;-83
2022/11/26 07:07:14;;;;;;;3.27;1.40;;;5.10;99.70;;;;;;5021623;28;20088;-83
2022/11/26 07:09:40;;;;;;;3.83;1.50;;;5.10;99.80;;;;;;5006407;28;21094;-83
2022/11/26 07:12:06;;;;;;;3.40;1.37;;;5.10;99.90;;;;;;5030963;28;20467;-83
2022/11/26 07:14:32;;;;;;;2.80;1.40;;;5.10;99.90;;;;;;5015339;28;20350;-83
2022/11/26 07:16:58;;;;;;;1.95;1.17;;;5.10;99.90;;;;;;5044520;28;20017;-83
2022/11/26 07:19:23;;;;;;;2.53;1.33;;;5.10;99.90;;;;;;5043577;28;20180;-83
2022/11/26 07:21:49;;;;;;;3.05;1.40;;;5.10;99.90;;;;;;5022582;28;20226;-83
2022/11/26 07:24:15;;;;;;;3.80;1.37;;;5.10;99.90;;;;;;5015239;28;20020;-83
2022/11/26 07:26:41;;;;;;;2.80;1.58;;;5.20;99.90;;;;;;4991409;28;20036;-83
2022/11/26 07:29:07;;;;;;;4.80;2.45;;;5.20;99.90;;;;;;5017118;28;20059;-83
2022/11/26 07:31:32;;;;;;;4.23;2.07;;;5.20;99.90;;;;;;5024089;28;20036;-82
2022/11/26 07:33:58;;;;;;;5.22;1.98;;;5.20;99.90;;;;;;5034289;28;20029;-83
2022/11/26 07:36:26;;;;;;;3.13;1.60;;;5.20;99.90;;;;;;5023539;28;20060;-82
2022/11/26 07:39:00;;;;;;;5.18;1.60;;;5.30;99.90;;;;;;5035734;28;20017;-83
2022/11/26 07:41:26;;;;;;;3.20;1.70;;;5.30;99.90;;;;;;5019230;28;20478;-83
2022/11/26 07:43:52;;;;;;;3.65;1.90;;;5.30;99.90;;;;;;5021411;28;20529;-83
2022/11/26 07:46:21;;;;;;;3.57;1.73;;;5.40;99.90;;;;;;4978467;28;20080;-83
2022/11/26 07:48:47;;;;;;;4.90;1.42;;;5.40;99.90;;;;;;5026330;28;20507;-83
2022/11/26 07:51:23;;;;;;;2.70;1.20;;;5.50;99.90;;;;;;5018696;28;20686;-83
2022/11/26 07:53:49;;;;;;;2.78;1.63;;;5.50;99.90;;;;;;5023652;28;20263;-83
2022/11/26 07:56:15;;;;;;;2.92;1.42;;;5.60;99.90;;;;;;5002867;28;20347;-83
2022/11/26 07:58:41;;;;;;;4.53;1.30;;;5.60;99.90;;;;;;4988780;28;20567;-83
2022/11/26 08:01:11;;;;;;;2.75;1.10;;;5.70;99.90;;;;;;4982581;28;20025;-83
2022/11/26 08:03:43;;;;;;;2.60;1.15;;;5.70;99.90;;;;;;5023560;28;20036;-83
2022/11/26 08:06:10;;;;;;;3.65;1.30;;;5.90;99.90;;;;;;5029568;28;20446;-83
2022/11/26 08:08:37;;;;;;;3.70;1.47;;;5.90;99.90;;;;;;5024202;28;20036;-83
2022/11/26 08:11:04;;;;;;;2.15;1.23;;;6.10;99.90;;;;;;5010556;28;20029;-82
2022/11/26 08:13:29;;;;;;;4.50;1.75;;;6.20;99.90;;;;;;5013624;28;20028;-82
2022/11/26 08:15:55;;;;;;;4.10;1.40;;;6.30;99.90;;;;;;4997828;28;20382;-82
2022/11/26 08:18:21;;;;;;;3.58;1.20;;;6.40;99.90;;;;;;5017274;28;20131;-83
2022/11/26 08:20:54;;;;;;;4.65;1.50;;;6.50;99.90;;;;;;5013651;28;20056;-83
2022/11/26 08:23:20;;;;;;;4.03;1.50;;;6.70;99.90;;;;;;5032752;28;20106;-83
2022/11/26 08:25:46;;;;;;;3.97;1.48;;;6.80;99.90;;;;;;5012263;28;20018;-82
2022/11/26 08:28:11;;;;;;;4.23;1.40;;;7.00;99.90;;;;;;4994124;28;20135;-83
2022/11/26 08:30:37;;;;;;;4.03;1.50;;;7.10;99.90;;;;;;5021695;28;20055;-82
2022/11/26 08:33:03;;;;;;;4.37;1.77;;;7.30;99.90;;;;;;5012025;28;20040;-82
2022/11/26 08:35:28;;;;;;;2.95;1.40;;;7.40;99.90;;;;;;5022844;28;20024;-82
2022/11/26 08:37:54;;;;;;;3.93;1.70;;;7.60;99.90;;;;;;5012110;28;20493;-83
2022/11/26 08:40:19;;;;;;;5.00;1.50;;;7.70;99.90;;;;;;5009241;28;20139;-83
2022/11/26 08:42:45;;;;;;;5.47;2.20;;;7.80;99.90;;;;;;5007034;28;20614;-83
2022/11/26 08:45:11;;;;;;;6.37;2.07;;;8.00;99.90;;;;;;5004457;28;20033;-83
2022/11/26 08:47:36;;;;;;;3.72;1.55;;;8.10;99.90;;;;;;5012809;28;20049;-83
2022/11/26 08:50:03;;;;;;;5.73;2.20;;;8.20;99.90;;;;;;5019953;28;20056;-83
2022/11/26 08:52:28;;;;;;;4.18;1.70;;;8.30;99.90;;;;;;5019021;28;20122;-83
2022/11/26 08:54:54;;;;;;;3.70;1.80;;;8.30;99.90;;;;;;5025703;28;20964;-83
2022/11/26 08:57:20;;;;;;;6.10;1.50;;;8.40;99.90;;;;;;5004476;28;20033;-83
2022/11/26 08:59:45;;;;;;;5.53;1.70;;;8.50;99.90;;;;;;5021105;28;20021;-83
2022/11/26 09:02:11;;;;;;;5.35;1.80;;;8.60;99.90;;;;;;5004000;28;20091;-83
2022/11/26 09:04:36;;;;;;;3.90;2.20;;;8.70;99.90;;;;;;5022951;28;20666;-83
2022/11/26 09:07:02;;;;;;;5.60;2.00;;;8.70;99.90;;;;;;5030732;28;20686;-83
2022/11/26 09:09:28;;;;;;;4.33;1.80;;;8.80;99.90;;;;;;5041530;28;20285;-83
2022/11/26 09:11:58;;;;;;;3.42;1.70;;;8.90;99.90;;;;;;5011594;28;20117;-83
2022/11/26 09:14:26;;;;;;;3.95;1.45;;;9.10;99.90;;;;;;4994646;28;20259;-83
2022/11/26 09:16:54;;;;;;;4.20;1.63;;;9.20;99.90;;;;;;5031816;28;21297;-83
2022/11/26 09:19:20;;;;;;;6.85;1.70;;;9.30;99.90;;;;;;4994112;28;20567;-84
2022/11/26 09:21:46;;;;;;;5.05;2.03;;;9.50;99.90;;;;;;5024704;28;20029;-83
2022/11/26 09:24:12;;;;;;;5.63;2.08;;;9.60;99.90;;;;;;5018060;28;20037;-83
2022/11/26 09:26:38;;;;;;;7.07;2.00;;;9.80;99.90;;;;;;5027907;28;20078;-84
2022/11/26 09:29:04;;;;;;;6.55;1.80;;;10.10;99.90;;;;;;5003940;28;20056;-82
2022/11/26 09:31:30;;;;;;;5.85;1.70;;;10.30;99.90;;;;;;5014251;28;20127;-84
2022/11/26 09:33:58;;;;;;;5.95;2.05;;;10.50;99.90;;;;;;5011869;28;20025;-83
2022/11/26 09:36:24;;;;;;;5.80;1.77;;;10.80;99.90;;;;;;5009246;28;20481;-83
2022/11/26 09:38:57;;;;;;;4.77;1.53;;;10.90;99.90;;;;;;5045721;28;20448;-83
2022/11/26 09:41:41;;;;;;;3.65;1.42;;;11.10;99.90;;;;;;5019467;28;20512;-83
2022/11/26 09:44:25;;;;;;;5.65;1.80;;;11.30;99.90;;;;;;5021900;28;20141;-83
2022/11/26 09:47:12;;;;;;;5.72;1.55;;;11.50;99.90;;;;;;4992829;28;20248;-84
2022/11/26 09:50:26;;;;;;;5.28;1.73;;;11.80;99.90;;;;;;5007215;28;20051;-84
2022/11/26 09:53:03;;;;;;;5.03;1.90;;;12.20;99.90;;;;;;5015788;28;20037;-84
2022/11/26 09:55:32;;;;;;;4.53;1.88;;;12.60;99.90;;;;;;5020557;28;20071;-84
2022/11/26 09:58:20;;;;;;;7.85;1.90;;;12.90;99.90;;;;;;5024763;28;20106;-86
2022/11/26 10:00:52;;;;;;;5.75;1.70;;;13.40;99.90;;;;;;5011407;28;20387;-86
2022/11/26 10:03:23;;;;;;;6.13;2.05;;;13.90;99.90;;;;;;5003092;28;20229;-85
2022/11/26 10:06:21;;;;;;;7.50;2.30;;;14.20;99.90;;;;;;5012549;28;20033;-84
2022/11/26 10:09:17;;;;;;;6.70;2.22;;;14.70;99.90;;;;;;4988156;28;20561;-85
2022/11/26 10:11:47;;;;;;;7.68;2.22;;;15.10;99.90;;;;;;5004018;28;20032;-85
2022/11/26 10:14:47;;;;;;;5.65;1.75;;;15.50;99.90;;;;;;5015638;28;20533;-85
2022/11/26 10:17:28;;;;;;;4.53;1.60;;;15.80;99.90;;;;;;4992181;28;20044;-86
2022/11/26 10:19:56;;;;;;;7.53;1.50;;;16.10;99.90;;;;;;4994980;28;20037;-86
2022/11/26 10:22:31;;;;;;;5.53;1.58;;;16.40;99.90;;;;;;5018211;28;20560;-86
2022/11/26 10:24:58;;;;;;;4.97;1.58;;;16.60;99.90;;;;;;5015245;28;20048;-86
2022/11/26 10:27:29;;;;;;;8.10;1.63;;;16.80;99.90;;;;;;4998065;28;20038;-86
2022/11/26 10:30:02;;;;;;;4.50;1.50;;;17.10;99.90;;;;;;5001564;28;20361;-86
2022/11/26 10:32:38;;;;;;;5.70;1.37;;;17.30;99.90;;;;;;4996129;28;20091;-86
2022/11/26 10:35:05;;;;;;;4.90;1.38;;;17.60;99.90;;;;;;5025354;28;20484;-86
2022/11/26 10:37:30;;;;;;;3.70;1.42;;;17.90;99.90;;;;;;5010981;28;20033;-87
2022/11/26 10:40:10;;;;;;;4.85;1.70;;;18.20;99.90;;;;;;5016027;28;20102;-87
2022/11/26 10:42:47;;;;;;;4.40;1.60;;;18.30;99.90;;;;;;5029057;28;20397;-87
2022/11/26 10:45:22;;;;;;;5.82;1.70;;;18.30;99.90;;;;;;5045954;28;20119;-88
2022/11/26 10:47:48;;;;;;;4.43;1.35;;;18.20;99.90;;;;;;5010790;28;20028;-85
2022/11/26 10:50:25;;;;;;;4.03;1.43;;;18.10;99.90;;;;;;5012005;28;20045;-87
2022/11/26 10:52:52;;;;;;;7.93;1.50;;;17.90;99.90;;;;;;5021574;28;20116;-88
2022/11/26 10:55:19;;;;;;;7.80;1.85;;;17.70;99.90;;;;;;5061670;28;20120;-88
2022/11/26 10:57:54;;;;;;;5.90;1.67;;;17.50;99.90;;;;;;5031885;28;20493;-88
2022/11/26 11:00:38;;;;;;;5.22;1.25;;;17.30;99.90;;;;;;5008280;28;20025;-87
2022/11/26 11:03:13;;;;;;;7.17;1.87;;;17.10;99.90;;;;;;5017980;28;20085;-88
2022/11/26 11:05:41;;;;;;;5.03;1.50;;;16.90;99.90;;;;;;5017053;28;20435;-88
2022/11/26 11:08:13;;;;;;;7.68;1.70;;;16.80;99.90;;;;;;5040092;28;20065;-88
2022/11/26 11:10:52;;;;;;;5.47;1.42;;;16.60;99.90;;;;;;5028472;28;20043;-88
2022/11/26 11:13:18;;;;;;;4.28;1.63;;;16.50;99.90;;;;;;5041609;28;20021;-88
2022/11/26 11:15:44;;;;;;;5.83;1.40;;;16.30;99.90;;;;;;5036585;28;20028;-88
2022/11/26 11:18:20;;;;;;;5.40;1.50;;;16.20;99.90;;;;;;5021942;28;20397;-88
2022/11/26 11:20:57;;;;;;;5.72;1.45;;;16.10;99.90;;;;;;5049714;28;20065;-88
2022/11/26 11:23:26;;;;;;;3.85;1.40;;;16.00;99.90;;;;;;5011542;28;20291;-88
2022/11/26 11:26:02;;;;;;;6.80;1.58;;;15.90;99.90;;;;;;5034193;28;20035;-88
2022/11/26 11:28:31;;;;;;;5.13;1.25;;;15.80;99.90;;;;;;5035632;28;20169;-88
2022/11/26 11:31:09;;;;;;;4.67;1.43;;;15.90;99.90;;;;;;5044629;28;20516;-88
2022/11/26 11:33:35;;;;;;;5.03;1.48;;;16.00;99.90;;;;;;5057203;28;20090;-88
2022/11/26 11:36:12;;;;;;;5.97;1.35;;;16.10;99.90;;;;;;4982223;28;20838;-87
2022/11/26 11:38:56;;;;;;;4.50;1.40;;;16.40;99.90;;;;;;4996302;28;20107;-88
2022/11/26 11:41:29;;;;;;;6.40;1.50;;;16.60;99.90;;;;;;5014600;28;20225;-87
2022/11/26 11:44:13;;;;;;;5.60;1.42;;;16.90;99.90;;;;;;5011607;28;20648;-87
2022/11/26 11:46:48;;;;;;;4.22;1.27;;;17.30;99.90;;;;;;5022495;28;20037;-87
2022/11/26 11:49:36;;;;;;;5.90;1.50;;;17.60;99.90;;;;;;5007818;28;20494;-87
2022/11/26 11:52:12;;;;;;;6.47;1.27;;;17.90;99.90;;;;;;5007492;28;20053;-87
2022/11/26 11:55:09;;;;;;;5.10;1.35;;;18.10;99.90;;;;;;4992080;28;20037;-87
2022/11/26 11:57:54;;;;;;;4.38;1.20;;;18.30;99.90;;;;;;5016794;28;20454;-86
2022/11/26 12:00:41;;;;;;;5.50;1.38;;;18.40;99.90;;;;;;5005369;28;20612;-87
2022/11/26 12:03:31;;;;;;;5.10;1.50;;;18.50;99.90;;;;;;5021151;28;20478;-87
2022/11/26 12:06:28;;;;;;;7.33;1.57;;;18.50;99.90;;;;;;5006012;28;20452;-86
2022/11/26 12:09:26;;;;;;;3.53;1.20;;;18.40;99.90;;;;;;5014441;28;20028;-87
2022/11/26 12:12:14;;;;;;;5.95;1.40;;;18.40;99.90;;;;;;5014822;28;20063;-87
2022/11/26 12:14:43;;;;;;;3.88;1.50;;;18.30;99.90;;;;;;5043983;28;20381;-87
2022/11/26 12:18:13;;;;;;;5.93;1.50;;;18.20;99.90;;;;;;5022782;28;20378;-87
2022/11/26 12:20:53;;;;;;;5.53;1.27;;;18.10;99.90;;;;;;4970560;28;20045;-88
2022/11/26 12:23:44;;;;;;;7.70;1.60;;;18.00;99.90;;;;;;4931532;28;20343;-87
2022/11/26 12:26:20;;;;;;;5.13;1.40;;;17.80;99.90;;;;;;4992886;28;20037;-86
2022/11/26 12:28:57;;;;;;;4.22;1.20;;;17.70;99.90;;;;;;5048590;28;20112;-87
2022/11/26 12:31:34;;;;;;;10.05;1.60;;;17.60;99.90;;;;;;5045733;28;20484;-85
2022/11/26 12:34:20;;;;;;;5.83;1.50;;;17.60;99.90;;;;;;5026369;28;20033;-86
2022/11/26 12:36:58;;;;;;;5.55;1.20;;;17.70;99.90;;;;;;5049946;28;20040;-85
2022/11/26 12:39:41;;;;;;;6.65;1.70;;;17.80;99.90;;;;;;5032632;28;20465;-86
2022/11/26 12:42:34;;;;;;;5.35;1.30;;;17.90;99.90;;;;;;5020877;28;20319;-87
2022/11/26 12:45:22;;;;;;;3.90;1.25;;;18.10;99.90;;;;;;5024707;28;20044;-87
2022/11/26 12:47:59;;;;;;;4.30;1.30;;;18.20;99.90;;;;;;5033157;28;20037;-86
2022/11/26 12:50:46;;;;;;;3.25;1.23;;;18.30;99.90;;;;;;5042310;28;20099;-86
2022/11/26 12:53:37;;;;;;;7.57;1.60;;;18.30;99.90;;;;;;5038679;28;24036;-86
2022/11/26 12:56:40;;;;;;;6.22;1.55;;;18.40;99.90;;;;;;4996564;28;20256;-86
2022/11/26 12:59:38;;;;;;;4.38;1.40;;;18.40;99.90;;;;;;5017706;28;20383;-82
2022/11/26 13:02:19;;;;;;;6.57;1.40;;;18.40;99.90;;;;;;5002069;28;20026;-82
2022/11/26 13:04:45;;;;;;;6.30;1.42;;;18.30;99.90;;;;;;5030767;28;20260;-82
2022/11/26 13:07:43;;;;;;;5.60;1.45;;;18.30;99.90;;;;;;5020796;28;20029;-84
2022/11/26 13:10:42;;;;;;;6.50;1.80;;;18.40;99.90;;;;;;5010692;28;20025;-85
2022/11/26 13:13:23;;;;;;;6.50;1.60;;;18.40;98.60;;;;;;5032934;28;20037;-84
2022/11/26 13:16:04;;;;;;;4.25;1.08;;;18.30;99.90;;;;;;5026674;28;20025;-83